createdAt,value
2017-08-20T00:01:26.950Z,83.37
2017-08-20T00:03:54.548Z,83.19
2017-08-20T00:06:22.275Z,83.08
2017-08-20T00:08:49.906Z,83.09
2017-08-20T00:11:17.530Z,83.13
2017-08-20T00:13:45.126Z,82.82
2017-08-20T00:16:12.766Z,82.40
2017-08-20T00:18:40.386Z,82.67
2017-08-20T00:21:07.989Z,82.78
2017-08-20T00:23:35.574Z,82.94
2017-08-20T00:26:03.195Z,82.90
2017-08-20T00:28:30.810Z,82.09
2017-08-20T00:30:58.408Z,82.18
2017-08-20T00:33:26.054Z,82.46
2017-08-20T00:35:53.678Z,82.01
2017-08-20T00:38:21.274Z,81.74
2017-08-20T00:40:48.906Z,82.23
2017-08-20T00:43:16.633Z,82.74
2017-08-20T00:45:44.252Z,82.82
2017-08-20T00:48:11.912Z,83.11
2017-08-20T00:50:39.506Z,82.99
2017-08-20T00:53:07.139Z,82.32
2017-08-20T00:55:34.760Z,82.20
2017-08-20T00:58:02.358Z,81.85
2017-08-20T01:00:29.990Z,82.25
2017-08-20T01:02:57.606Z,82.39
2017-08-20T01:05:25.350Z,81.53
2017-08-20T01:07:52.955Z,81.24
2017-08-20T01:10:20.595Z,81.65
2017-08-20T01:12:48.187Z,81.58
2017-08-20T01:15:15.834Z,82.11
2017-08-20T01:17:43.434Z,82.13
2017-08-20T01:20:11.102Z,81.16
2017-08-20T01:22:38.689Z,81.61
2017-08-20T01:25:06.349Z,81.18
2017-08-20T01:27:34.021Z,82.11
2017-08-20T01:30:01.665Z,82.26
2017-08-20T01:32:29.259Z,81.77
2017-08-20T01:34:56.887Z,82.47
2017-08-20T01:37:24.606Z,82.83
2017-08-20T01:39:52.271Z,82.34
2017-08-20T01:42:19.970Z,82.33
2017-08-20T01:44:47.610Z,82.86
2017-08-20T01:47:15.271Z,83.42
2017-08-20T01:49:42.900Z,83.52
2017-08-20T01:52:10.539Z,83.91
2017-08-20T01:54:38.190Z,84.23
2017-08-20T01:57:05.894Z,84.23
2017-08-20T01:59:33.536Z,83.54
2017-08-20T02:02:01.166Z,83.60
2017-08-20T02:04:28.831Z,83.51
2017-08-20T02:06:56.471Z,83.47
2017-08-20T02:09:24.057Z,84.05
2017-08-20T02:11:51.700Z,83.16
2017-08-20T02:14:19.346Z,83.08
2017-08-20T02:16:46.950Z,82.69
2017-08-20T02:19:14.616Z,82.19
2017-08-20T02:21:42.246Z,82.73
2017-08-20T02:24:09.887Z,82.95
2017-08-20T02:26:37.487Z,82.40
2017-08-20T02:29:05.078Z,82.29
2017-08-20T02:31:32.670Z,82.08
2017-08-20T02:34:00.288Z,81.98
2017-08-20T02:36:27.892Z,82.71
2017-08-20T02:38:55.508Z,82.97
2017-08-20T02:41:23.130Z,82.99
2017-08-20T02:43:50.768Z,83.25
2017-08-20T02:46:18.370Z,83.14
2017-08-20T02:48:46.000Z,82.89
2017-08-20T02:51:13.639Z,82.84
2017-08-20T02:53:41.281Z,82.68
2017-08-20T02:56:08.901Z,82.73
2017-08-20T02:58:36.515Z,82.66
2017-08-20T03:01:04.135Z,82.89
2017-08-20T03:03:31.753Z,83.10
2017-08-20T03:05:59.367Z,83.34
2017-08-20T03:08:26.995Z,83.63
2017-08-20T03:10:54.638Z,83.50
2017-08-20T03:13:22.266Z,83.65
2017-08-20T03:15:49.898Z,83.65
2017-08-20T03:18:17.511Z,83.94
2017-08-20T03:20:45.098Z,83.77
2017-08-20T03:23:12.777Z,83.12
2017-08-20T03:25:40.442Z,83.11
2017-08-20T03:28:08.082Z,83.35
2017-08-20T03:30:35.675Z,83.73
2017-08-20T03:33:03.323Z,84.32
2017-08-20T03:35:30.938Z,85.04
2017-08-20T03:37:58.559Z,84.44
2017-08-20T03:40:26.214Z,84.51
2017-08-20T03:42:53.855Z,84.13
2017-08-20T03:45:21.459Z,84.21
2017-08-20T03:47:49.098Z,84.50
2017-08-20T03:50:16.702Z,85.01
2017-08-20T03:52:44.490Z,84.69
2017-08-20T03:55:12.091Z,84.60
2017-08-20T03:57:39.718Z,84.28
2017-08-20T04:00:07.341Z,84.23
2017-08-20T04:02:34.997Z,83.84
2017-08-20T04:05:02.590Z,83.85
2017-08-20T04:07:30.179Z,83.75
2017-08-20T04:09:57.838Z,84.27
2017-08-20T04:12:25.437Z,84.33
2017-08-20T04:14:53.076Z,84.50
2017-08-20T04:17:20.697Z,84.49
2017-08-20T04:19:48.341Z,83.65
2017-08-20T04:22:16.355Z,83.77
2017-08-20T04:24:43.983Z,83.72
2017-08-20T04:27:11.936Z,83.60
2017-08-20T04:29:39.566Z,83.25
2017-08-20T04:32:07.186Z,83.40
2017-08-20T04:34:34.843Z,83.51
2017-08-20T04:37:02.464Z,83.62
2017-08-20T04:39:30.203Z,83.72
2017-08-20T04:41:57.830Z,83.60
2017-08-20T04:44:25.474Z,83.73
2017-08-20T04:46:53.082Z,83.50
2017-08-20T04:49:20.754Z,83.51
2017-08-20T04:51:48.346Z,83.35
2017-08-20T04:54:15.986Z,83.13
2017-08-20T04:56:43.582Z,83.22
2017-08-20T04:59:11.223Z,83.61
2017-08-20T05:01:38.843Z,83.66
2017-08-20T05:04:06.460Z,83.51
2017-08-20T05:06:34.055Z,83.64
2017-08-20T05:09:01.706Z,83.28
2017-08-20T05:11:29.295Z,83.53
2017-08-20T05:13:56.930Z,83.58
2017-08-20T05:16:24.529Z,84.20
2017-08-20T05:18:52.167Z,84.51
2017-08-20T05:21:19.761Z,84.22
2017-08-20T05:23:47.368Z,84.47
2017-08-20T05:26:15.007Z,84.23
2017-08-20T05:28:42.615Z,84.12
2017-08-20T05:31:10.256Z,84.36
2017-08-20T05:33:37.858Z,84.47
2017-08-20T05:36:05.486Z,84.41
2017-08-20T05:38:33.104Z,84.02
2017-08-20T05:41:00.743Z,84.15
2017-08-20T05:43:28.335Z,84.18
2017-08-20T05:45:55.991Z,84.07
2017-08-20T05:48:23.584Z,84.08
2017-08-20T05:50:51.202Z,84.31
2017-08-20T05:53:18.822Z,84.50
2017-08-20T05:55:46.431Z,84.57
2017-08-20T05:58:14.063Z,84.72
2017-08-20T06:00:41.658Z,84.69
2017-08-20T06:03:09.311Z,84.35
2017-08-20T06:05:36.967Z,84.41
2017-08-20T06:08:04.626Z,84.18
2017-08-20T06:10:32.239Z,84.00
2017-08-20T06:12:59.871Z,83.83
2017-08-20T06:15:27.535Z,84.57
2017-08-20T06:17:55.172Z,84.78
2017-08-20T06:20:22.778Z,84.95
2017-08-20T06:22:50.399Z,84.94
2017-08-20T06:25:18.044Z,84.80
2017-08-20T06:27:45.696Z,84.65
2017-08-20T06:30:13.313Z,84.74
2017-08-20T06:32:40.938Z,84.28
2017-08-20T06:35:08.562Z,83.44
2017-08-20T06:37:36.205Z,83.41
2017-08-20T06:40:03.990Z,83.52
2017-08-20T06:42:31.621Z,83.19
2017-08-20T06:44:59.248Z,82.42
2017-08-20T06:47:26.904Z,83.21
2017-08-20T06:49:54.550Z,82.07
2017-08-20T06:52:22.167Z,81.71
2017-08-20T06:54:49.791Z,81.32
2017-08-20T06:57:17.465Z,81.25
2017-08-20T06:59:45.094Z,81.46
2017-08-20T07:02:12.711Z,81.40
2017-08-20T07:04:40.354Z,81.30
2017-08-20T07:07:07.958Z,80.93
2017-08-20T07:09:35.594Z,81.48
2017-08-20T07:12:03.316Z,81.86
2017-08-20T07:14:30.962Z,81.73
2017-08-20T07:16:58.583Z,82.23
2017-08-20T07:19:26.195Z,82.80
2017-08-20T07:21:53.856Z,82.60
2017-08-20T07:24:21.533Z,83.03
2017-08-20T07:26:49.126Z,82.09
2017-08-20T07:29:16.756Z,82.00
2017-08-20T07:31:44.406Z,82.06
2017-08-20T07:34:12.027Z,82.67
2017-08-20T07:36:39.674Z,82.65
2017-08-20T07:39:07.282Z,83.26
2017-08-20T07:41:34.994Z,83.20
2017-08-20T07:44:02.590Z,84.03
2017-08-20T07:46:30.222Z,83.40
2017-08-20T07:48:57.838Z,83.92
2017-08-20T07:51:25.494Z,83.67
2017-08-20T07:53:53.088Z,83.45
2017-08-20T07:56:20.740Z,83.33
2017-08-20T07:58:48.338Z,83.65
2017-08-20T08:01:15.963Z,83.78
2017-08-20T08:03:43.603Z,84.07
2017-08-20T08:06:11.234Z,83.54
2017-08-20T08:08:38.844Z,83.72
2017-08-20T08:11:06.535Z,83.01
2017-08-20T08:13:34.158Z,82.82
2017-08-20T08:16:01.824Z,82.89
2017-08-20T08:18:29.421Z,82.62
2017-08-20T08:20:57.130Z,82.38
2017-08-20T08:23:24.757Z,82.17
2017-08-20T08:25:52.388Z,81.68
2017-08-20T08:28:20.022Z,81.59
2017-08-20T08:30:47.767Z,81.47
2017-08-20T08:33:15.403Z,81.19
2017-08-20T08:35:43.026Z,81.27
2017-08-20T08:38:10.686Z,80.26
2017-08-20T08:40:38.303Z,80.60
2017-08-20T08:43:05.934Z,79.53
2017-08-20T08:45:33.548Z,79.33
2017-08-20T08:48:01.232Z,78.76
2017-08-20T08:50:28.836Z,79.13
2017-08-20T08:52:56.547Z,78.88
2017-08-20T08:55:24.204Z,78.97
2017-08-20T08:57:51.853Z,78.43
2017-08-20T09:00:19.433Z,78.01
2017-08-20T09:02:47.118Z,78.38
2017-08-20T09:05:14.736Z,78.72
2017-08-20T09:07:42.432Z,78.56
2017-08-20T09:10:10.062Z,78.40
2017-08-20T09:12:37.690Z,77.72
2017-08-20T09:15:05.291Z,77.36
2017-08-20T09:17:32.915Z,77.43
2017-08-20T09:20:00.524Z,77.06
2017-08-20T09:22:28.163Z,77.69
2017-08-20T09:24:55.756Z,77.92
2017-08-20T09:27:23.395Z,78.18
2017-08-20T09:29:51.031Z,77.55
2017-08-20T09:32:18.662Z,76.52
2017-08-20T09:34:46.309Z,75.92
2017-08-20T09:37:13.909Z,76.41
2017-08-20T09:39:41.566Z,75.98
2017-08-20T09:42:09.164Z,75.24
2017-08-20T09:44:36.785Z,76.08
2017-08-20T09:47:04.425Z,74.16
2017-08-20T09:49:32.059Z,73.78
2017-08-20T09:51:59.662Z,73.19
2017-08-20T09:54:27.303Z,72.36
2017-08-20T09:56:54.909Z,71.07
2017-08-20T09:59:22.546Z,69.62
2017-08-20T10:01:50.142Z,69.93
2017-08-20T10:04:17.766Z,69.24
2017-08-20T10:06:45.370Z,70.36
2017-08-20T10:09:13.025Z,70.83
2017-08-20T10:11:40.631Z,71.41
2017-08-20T10:14:08.271Z,72.00
2017-08-20T10:16:35.945Z,70.96
2017-08-20T10:19:03.718Z,69.78
2017-08-20T10:21:31.430Z,68.77
2017-08-20T10:23:59.046Z,68.07
2017-08-20T10:26:26.675Z,67.42
2017-08-20T10:28:54.275Z,66.26
2017-08-20T10:31:21.920Z,65.40
2017-08-20T10:33:49.547Z,65.28
2017-08-20T10:36:18.874Z,65.16
2017-08-20T10:38:46.507Z,63.61
2017-08-20T10:41:14.131Z,63.72
2017-08-20T10:43:41.726Z,65.41
2017-08-20T10:46:09.363Z,63.51
2017-08-20T10:48:37.019Z,64.76
2017-08-20T10:51:04.614Z,65.02
2017-08-20T10:53:32.294Z,65.70
2017-08-20T10:55:59.891Z,65.57
2017-08-20T10:58:27.530Z,65.81
2017-08-20T11:00:55.140Z,64.87
2017-08-20T11:03:22.804Z,64.72
2017-08-20T11:05:50.411Z,65.22
2017-08-20T11:08:18.055Z,64.60
2017-08-20T11:10:45.690Z,64.82
2017-08-20T11:13:13.331Z,63.98
2017-08-20T11:15:40.922Z,64.59
2017-08-20T11:18:08.590Z,64.27
2017-08-20T11:20:36.195Z,62.46
2017-08-20T11:23:03.842Z,62.71
2017-08-20T11:25:31.434Z,62.00
2017-08-20T11:27:59.051Z,62.13
2017-08-20T11:30:26.805Z,60.85
2017-08-20T11:32:54.473Z,60.25
2017-08-20T11:35:22.054Z,61.11
2017-08-20T11:37:49.703Z,61.22
2017-08-20T11:40:17.290Z,62.57
2017-08-20T11:42:44.942Z,61.11
2017-08-20T11:45:12.602Z,60.83
2017-08-20T11:47:40.206Z,59.35
2017-08-20T11:50:07.847Z,57.64
2017-08-20T11:52:35.514Z,57.24
2017-08-20T11:55:03.147Z,56.61
2017-08-20T11:57:30.764Z,55.16
2017-08-20T11:59:58.382Z,56.43
2017-08-20T12:02:26.018Z,58.97
2017-08-20T12:04:53.654Z,59.58
2017-08-20T12:07:21.259Z,60.42
2017-08-20T12:09:48.882Z,61.56
2017-08-20T12:12:17.368Z,61.31
2017-08-20T12:14:44.978Z,61.41
2017-08-20T12:17:12.638Z,61.62
2017-08-20T12:19:40.257Z,61.15
2017-08-20T12:22:07.862Z,61.42
2017-08-20T12:24:35.490Z,60.90
2017-08-20T12:27:03.145Z,61.43
2017-08-20T12:29:30.762Z,61.14
2017-08-20T12:31:58.415Z,59.75
2017-08-20T12:34:26.105Z,59.19
2017-08-20T12:36:53.727Z,59.59
2017-08-20T12:39:21.311Z,59.27
2017-08-20T12:41:48.943Z,59.24
2017-08-20T12:44:16.615Z,58.45
2017-08-20T12:46:44.243Z,58.45
2017-08-20T12:49:11.842Z,57.70
2017-08-20T12:51:39.462Z,55.91
2017-08-20T12:54:07.077Z,54.33
2017-08-20T12:56:34.793Z,54.01
2017-08-20T12:59:04.286Z,52.38
2017-08-20T13:01:32.043Z,51.98
2017-08-20T13:03:59.659Z,52.99
2017-08-20T13:06:27.313Z,53.34
2017-08-20T13:08:54.956Z,54.76
2017-08-20T13:11:22.586Z,53.76
2017-08-20T13:13:50.178Z,54.39
2017-08-20T13:16:17.837Z,55.10
2017-08-20T13:18:45.450Z,54.93
2017-08-20T13:21:13.099Z,53.97
2017-08-20T13:23:40.715Z,53.39
2017-08-20T13:26:08.402Z,53.04
2017-08-20T13:28:36.011Z,52.99
2017-08-20T13:31:03.637Z,52.70
2017-08-20T13:33:31.231Z,53.60
2017-08-20T13:35:58.853Z,53.83
2017-08-20T13:38:26.501Z,52.33
2017-08-20T13:40:54.220Z,51.98
2017-08-20T13:43:21.846Z,51.47
2017-08-20T13:45:49.526Z,51.70
2017-08-20T13:48:17.131Z,51.38
2017-08-20T13:50:44.791Z,50.16
2017-08-20T13:53:12.412Z,49.67
2017-08-20T13:55:40.042Z,51.43
2017-08-20T13:58:07.671Z,52.16
2017-08-20T14:00:35.278Z,53.36
2017-08-20T14:03:02.991Z,54.02
2017-08-20T14:05:30.577Z,55.34
2017-08-20T14:07:58.441Z,54.36
2017-08-20T14:10:26.063Z,55.10
2017-08-20T14:12:53.682Z,55.42
2017-08-20T14:15:21.281Z,56.20
2017-08-20T14:17:48.922Z,56.76
2017-08-20T14:20:16.527Z,56.28
2017-08-20T14:22:44.170Z,55.76
2017-08-20T14:25:11.771Z,55.75
2017-08-20T14:27:39.603Z,55.89
2017-08-20T14:30:07.310Z,55.72
2017-08-20T14:32:35.067Z,56.92
2017-08-20T14:35:02.770Z,56.42
2017-08-20T14:37:30.419Z,55.09
2017-08-20T14:39:58.059Z,56.10
2017-08-20T14:42:25.683Z,55.84
2017-08-20T14:44:53.304Z,55.94
2017-08-20T14:47:20.918Z,55.54
2017-08-20T14:49:48.631Z,54.37
2017-08-20T14:52:16.234Z,52.81
2017-08-20T14:54:43.863Z,52.22
2017-08-20T14:57:11.485Z,52.87
2017-08-20T14:59:39.135Z,52.46
2017-08-20T15:02:06.746Z,52.51
2017-08-20T15:04:34.376Z,52.23
2017-08-20T15:07:01.978Z,51.72
2017-08-20T15:09:29.630Z,51.76
2017-08-20T15:11:57.282Z,52.25
2017-08-20T15:14:24.928Z,52.85
2017-08-20T15:16:52.531Z,53.10
2017-08-20T15:19:20.196Z,52.72
2017-08-20T15:21:47.804Z,52.09
2017-08-20T15:24:15.519Z,52.02
2017-08-20T15:26:43.119Z,51.93
2017-08-20T15:29:10.806Z,49.65
2017-08-20T15:31:38.407Z,48.47
2017-08-20T15:34:06.042Z,49.07
2017-08-20T15:36:33.664Z,48.45
2017-08-20T15:39:01.311Z,46.37
2017-08-20T15:41:28.905Z,44.32
2017-08-20T15:43:56.535Z,43.49
2017-08-20T15:46:24.154Z,45.30
2017-08-20T15:48:51.775Z,47.20
2017-08-20T15:51:19.412Z,47.02
2017-08-20T15:53:47.057Z,48.29
2017-08-20T15:56:14.671Z,48.06
2017-08-20T15:58:42.295Z,47.90
2017-08-20T16:01:09.947Z,47.25
2017-08-20T16:03:37.558Z,48.05
2017-08-20T16:06:05.177Z,46.64
2017-08-20T16:08:32.827Z,46.64
2017-08-20T16:11:00.499Z,49.69
2017-08-20T16:13:28.112Z,48.33
2017-08-20T16:15:55.719Z,50.39
2017-08-20T16:18:23.358Z,48.98
2017-08-20T16:20:50.955Z,49.30
2017-08-20T16:23:18.564Z,49.12
2017-08-20T16:25:46.179Z,51.10
2017-08-20T16:28:13.792Z,50.01
2017-08-20T16:30:41.419Z,48.89
2017-08-20T16:33:09.046Z,47.86
2017-08-20T16:35:36.658Z,46.64
2017-08-20T16:38:04.251Z,47.50
2017-08-20T16:40:31.886Z,48.18
2017-08-20T16:42:59.534Z,46.01
2017-08-20T16:45:27.154Z,46.92
2017-08-20T16:47:54.753Z,47.41
2017-08-20T16:50:22.390Z,48.04
2017-08-20T16:52:49.983Z,48.73
2017-08-20T16:55:17.594Z,49.78
2017-08-20T16:57:45.222Z,50.17
2017-08-20T17:00:12.884Z,51.27
2017-08-20T17:02:40.522Z,51.76
2017-08-20T17:05:08.123Z,51.79
2017-08-20T17:07:35.802Z,51.49
2017-08-20T17:10:03.387Z,51.47
2017-08-20T17:12:31.014Z,51.22
2017-08-20T17:14:58.711Z,51.23
2017-08-20T17:17:26.342Z,51.07
2017-08-20T17:19:53.927Z,50.95
2017-08-20T17:22:21.563Z,51.20
2017-08-20T17:24:49.171Z,51.37
2017-08-20T17:27:16.809Z,51.17
2017-08-20T17:29:44.398Z,50.77
2017-08-20T17:32:12.062Z,49.77
2017-08-20T17:34:39.662Z,49.65
2017-08-20T17:37:07.270Z,49.94
2017-08-20T17:39:34.924Z,50.34
2017-08-20T17:42:02.528Z,50.98
2017-08-20T17:44:30.191Z,51.53
2017-08-20T17:46:57.943Z,51.91
2017-08-20T17:49:25.647Z,52.42
2017-08-20T17:51:53.315Z,52.62
2017-08-20T17:54:20.957Z,52.35
2017-08-20T17:56:48.588Z,52.27
2017-08-20T18:01:43.157Z,52.51
2017-08-20T18:04:10.819Z,52.73
2017-08-20T18:06:38.428Z,53.31
2017-08-20T18:09:06.098Z,53.33
2017-08-20T18:11:33.718Z,53.66
2017-08-20T18:14:01.342Z,53.99
2017-08-20T18:16:29.047Z,53.92
2017-08-20T18:18:56.675Z,54.37
2017-08-20T18:21:24.300Z,54.65
2017-08-20T18:23:51.939Z,54.81
2017-08-20T18:26:19.552Z,54.75
2017-08-20T18:28:47.162Z,55.11
2017-08-20T18:31:14.844Z,55.35
2017-08-20T18:33:42.471Z,55.49
2017-08-20T18:36:10.116Z,60.82
2017-08-20T18:38:37.736Z,56.29
2017-08-20T18:41:05.454Z,56.32
2017-08-20T18:43:33.062Z,57.05
2017-08-20T18:46:00.711Z,57.19
2017-08-20T18:48:28.363Z,57.43
2017-08-20T18:50:55.982Z,57.55
2017-08-20T18:53:23.652Z,57.78
2017-08-20T18:55:51.303Z,58.26
2017-08-20T18:58:18.972Z,58.30
2017-08-20T19:00:46.594Z,58.42
2017-08-20T19:03:14.247Z,58.89
2017-08-20T19:05:41.927Z,58.85
2017-08-20T19:08:09.568Z,58.52
2017-08-20T19:10:37.211Z,58.54
2017-08-20T19:13:04.854Z,63.19
2017-08-20T19:15:32.488Z,64.21
2017-08-20T19:18:00.176Z,63.69
2017-08-20T19:20:27.800Z,57.97
2017-08-20T19:22:55.456Z,60.64
2017-08-20T19:25:23.085Z,59.41
2017-08-20T19:27:50.710Z,57.48
2017-08-20T19:30:18.381Z,52.59
2017-08-20T19:32:46.056Z,53.00
2017-08-20T19:35:13.694Z,53.26
2017-08-20T19:37:41.299Z,51.74
2017-08-20T19:40:08.935Z,51.65
2017-08-20T19:42:36.616Z,51.46
2017-08-20T19:45:04.281Z,52.04
2017-08-20T19:47:31.894Z,52.49
2017-08-20T19:49:59.596Z,57.96
2017-08-20T19:52:27.260Z,62.94
2017-08-20T19:54:54.963Z,60.45
2017-08-20T19:57:22.594Z,57.47
2017-08-20T19:59:50.256Z,55.04
2017-08-20T20:02:17.854Z,48.51
2017-08-20T20:04:45.486Z,48.67
2017-08-20T20:07:13.085Z,49.09
2017-08-20T20:09:40.728Z,50.06
2017-08-20T20:12:08.330Z,51.05
2017-08-20T20:14:35.960Z,52.02
2017-08-20T20:17:03.627Z,53.05
2017-08-20T20:19:31.298Z,53.79
2017-08-20T20:21:58.944Z,59.04
2017-08-20T20:24:26.583Z,55.54
2017-08-20T20:26:54.219Z,56.06
2017-08-20T20:29:21.839Z,56.50
2017-08-20T20:31:49.515Z,56.88
2017-08-20T20:34:17.112Z,57.19
2017-08-20T20:36:44.799Z,57.56
2017-08-20T20:39:12.401Z,57.79
2017-08-20T20:41:40.038Z,57.98
2017-08-20T20:44:07.655Z,58.86
2017-08-20T20:46:35.275Z,59.48
2017-08-20T20:49:02.866Z,59.92
2017-08-20T20:51:30.511Z,60.53
2017-08-20T20:53:58.128Z,60.84
2017-08-20T20:56:25.782Z,61.24
2017-08-20T20:58:53.387Z,61.67
2017-08-20T21:01:21.003Z,62.06
2017-08-20T21:03:48.635Z,62.29
2017-08-20T21:06:16.249Z,62.68
2017-08-20T21:08:43.930Z,63.09
2017-08-20T21:11:11.534Z,63.81
2017-08-20T21:13:39.175Z,64.21
2017-08-20T21:16:06.802Z,64.40
2017-08-20T21:18:34.448Z,64.92
2017-08-20T21:21:02.047Z,64.90
2017-08-20T21:23:29.692Z,65.21
2017-08-20T21:25:57.298Z,65.57
2017-08-20T21:28:24.949Z,66.04
2017-08-20T21:30:52.582Z,66.59
2017-08-20T21:33:20.223Z,66.91
2017-08-20T21:35:47.855Z,66.65
2017-08-20T21:38:15.502Z,66.71
2017-08-20T21:40:43.105Z,66.84
2017-08-20T21:43:10.860Z,66.49
2017-08-20T21:45:38.551Z,66.37
2017-08-20T21:48:06.172Z,66.97
2017-08-20T21:50:33.791Z,67.46
2017-08-20T21:53:01.411Z,68.20
2017-08-20T21:55:29.040Z,68.61
2017-08-20T21:57:56.674Z,68.88
2017-08-20T22:00:24.346Z,69.62
2017-08-20T22:02:52.013Z,69.57
2017-08-20T22:05:19.641Z,69.70
2017-08-20T22:07:47.273Z,69.63
2017-08-20T22:10:14.927Z,69.43
2017-08-20T22:12:42.546Z,69.51
2017-08-20T22:15:10.178Z,69.78
2017-08-20T22:17:37.782Z,70.05
2017-08-20T22:20:05.423Z,70.41
2017-08-20T22:22:33.021Z,70.68
2017-08-20T22:25:00.691Z,70.88
2017-08-20T22:27:28.295Z,71.32
2017-08-20T22:29:55.927Z,71.52
2017-08-20T22:32:23.575Z,71.53
2017-08-20T22:34:51.340Z,71.62
2017-08-20T22:37:18.947Z,71.67
2017-08-20T22:39:46.611Z,71.98
2017-08-20T22:42:14.215Z,72.21
2017-08-20T22:44:41.839Z,72.12
2017-08-20T22:47:09.448Z,72.06
2017-08-20T22:49:37.083Z,72.06
2017-08-20T22:52:04.679Z,72.26
2017-08-20T22:54:32.474Z,72.54
2017-08-20T22:57:00.074Z,72.75
2017-08-20T22:59:27.687Z,72.96
2017-08-20T23:01:55.271Z,72.89
2017-08-20T23:04:22.946Z,73.21
2017-08-20T23:06:50.552Z,73.45
2017-08-20T23:09:18.242Z,73.68
2017-08-20T23:11:45.830Z,73.43
2017-08-20T23:14:13.455Z,73.78
2017-08-20T23:16:41.039Z,73.29
2017-08-20T23:19:08.698Z,73.57
2017-08-20T23:21:36.300Z,73.60
2017-08-20T23:24:03.939Z,73.21
2017-08-20T23:26:31.532Z,73.00
2017-08-20T23:28:59.173Z,73.05
2017-08-20T23:31:26.770Z,73.15
2017-08-20T23:33:54.370Z,73.40
2017-08-20T23:36:21.990Z,73.72
2017-08-20T23:38:49.578Z,73.90
2017-08-20T23:41:17.218Z,74.08
2017-08-20T23:43:44.816Z,74.11
2017-08-20T23:46:12.431Z,73.89
2017-08-20T23:48:40.023Z,74.02
2017-08-20T23:51:07.711Z,74.07
2017-08-20T23:53:35.308Z,74.31
2017-08-20T23:56:02.922Z,74.75
2017-08-20T23:58:30.582Z,74.88
